Robert G. Stone, Jr. — WDD4596 — position and weather

sailwx.info

Track history (hours):
 
Tides and Currents Weather Stations Pressure Air Temp Water Temp Dewpoint Dewpoint Depression Visibility Wind Speed Wind Dir Waves Ship Positions

Robert G. Stone, Jr.

Owner: Kirby Inland Marine, LP, Houston, TX. More information available from US FCC via Universal Licensing System and Coast Guard Vessel Documentation Center.

Last reported at 2016-Jul-24 12:32 UTC. Time now 2016-Jul-29 05:58 UTC.
Position N 29°21' W 094°49'.

Length 27 m; draft 3 m.

Type: . MMSI: 367146780.

Date/timePositionNaut miles runAvg speedWind from/ knotsBaromVisibWave heightAir tempDewpointWater temp
2016-Jul-24 12:32N 29°21' W 094°49'  
2016-Jul-21 14:04N 29°26' W 094°43'0 0.0
2016-Jul-21 13:08N 29°26' W 094°43'0 0.0
2016-Jul-21 11:12N 29°26' W 094°43'0 0.0
2016-Jul-21 10:25N 29°26' W 094°43'5 0.1
2016-Jul-19 11:18N 29°22' W 094°47'  
2016-Jul-16 22:18N 29°60' W 093°46'6 7.9
2016-Jul-16 21:33N 30°04' W 093°41'7 6.9
2016-Jul-16 20:33N 30°04' W 093°33'6 6.1
2016-Jul-16 19:33N 30°04' W 093°26'6 6.0
2016-Jul-16 18:33N 30°06' W 093°20'1 1.2
2016-Jul-16 17:32N 30°06' W 093°18'3 2.9
2016-Jul-16 16:33N 30°04' W 093°16'6 5.8
2016-Jul-16 15:34N 29°59' W 093°12'5 5.3
2016-Jul-16 14:33N 29°56' W 093°07'7 6.6
2016-Jul-16 13:33N 29°56' W 092°60'7 6.5
2016-Jul-16 12:33N 29°57' W 092°52'22 5.6
2016-Jul-16 08:34N 29°53' W 092°27'5 5.4
2016-Jul-16 07:34N 29°51' W 092°21'4 4.5
2016-Jul-16 06:33N 29°49' W 092°17'11 5.4
2016-Jul-16 04:33N 29°48' W 092°04'6 6.0
2016-Jul-16 03:33N 29°50' W 091°58'12 5.0
2016-Jul-16 01:13N 29°46' W 091°45'26 6.8
2016-Jul-15 21:22N 29°39' W 091°16'5 6.5
2016-Jul-15 20:33N 29°43' W 091°13'137 4.5
2016-Jul-14 14:27N 31°60' W 091°05'8 9.2
2016-Jul-14 13:33N 32°08' W 091°06'8 8.2
2016-Jul-14 12:33N 32°14' W 090°59'  
Track history (hours):
 
Tides and Currents Weather Stations Pressure Air Temp Water Temp Dewpoint Dewpoint Depression Visibility Wind Speed Wind Dir Waves Ship Positions

Robert G. Stone, Jr.

Owner: Kirby Inland Marine, LP, Houston, TX. More information available from US FCC via Universal Licensing System and Coast Guard Vessel Documentation Center.

Last reported at 2016-Jul-24 12:32 UTC. Time now 2016-Jul-29 05:58 UTC.
Position N 29°21' W 094°49'.

Length 27 m; draft 3 m.

Type: . MMSI: 367146780.

Date/timePositionNaut miles runAvg speedWind from/ knotsBaromVisibWave heightAir tempDewpointWater temp
2016-Jul-24 12:32N 29°21' W 094°49'  
2016-Jul-21 14:04N 29°26' W 094°43'0 0.0
2016-Jul-21 13:08N 29°26' W 094°43'0 0.0
2016-Jul-21 11:12N 29°26' W 094°43'0 0.0
2016-Jul-21 10:25N 29°26' W 094°43'5 0.1
2016-Jul-19 11:18N 29°22' W 094°47'  
2016-Jul-16 22:18N 29°60' W 093°46'6 7.9
2016-Jul-16 21:33N 30°04' W 093°41'7 6.9
2016-Jul-16 20:33N 30°04' W 093°33'6 6.1
2016-Jul-16 19:33N 30°04' W 093°26'6 6.0
2016-Jul-16 18:33N 30°06' W 093°20'1 1.2
2016-Jul-16 17:32N 30°06' W 093°18'3 2.9
2016-Jul-16 16:33N 30°04' W 093°16'6 5.8
2016-Jul-16 15:34N 29°59' W 093°12'5 5.3
2016-Jul-16 14:33N 29°56' W 093°07'7 6.6
2016-Jul-16 13:33N 29°56' W 092°60'7 6.5
2016-Jul-16 12:33N 29°57' W 092°52'22 5.6
2016-Jul-16 08:34N 29°53' W 092°27'5 5.4
2016-Jul-16 07:34N 29°51' W 092°21'4 4.5
2016-Jul-16 06:33N 29°49' W 092°17'11 5.4
2016-Jul-16 04:33N 29°48' W 092°04'6 6.0
2016-Jul-16 03:33N 29°50' W 091°58'12 5.0
2016-Jul-16 01:13N 29°46' W 091°45'26 6.8
2016-Jul-15 21:22N 29°39' W 091°16'5 6.5
2016-Jul-15 20:33N 29°43' W 091°13'137 4.5
2016-Jul-14 14:27N 31°60' W 091°05'8 9.2
2016-Jul-14 13:33N 32°08' W 091°06'8 8.2
2016-Jul-14 12:33N 32°14' W 090°59'  

Dump ship's entire track history